Time;durP1;ratioP1;P1;durP2;ratioP2;P2;SDS_P1;SDS_P2;PMS_P1;PMS_P2;Temp;Humidity;BMP_temperature;BMP_pressure;BME280_temperature;BME280_humidity;BME280_pressure;Samples;Min_cycle;Max_cycle;Signal;HPM_P1;HPM_P2
2023/03/30 00:01:17;;;;;;;5.55;4.00;;;4.60;99.90;;;;;;5185530;28;20033;-66
2023/03/30 00:03:53;;;;;;;3.70;3.10;;;4.60;99.90;;;;;;5141560;28;20045;-67
2023/03/30 00:06:28;;;;;;;6.15;3.30;;;4.50;99.90;;;;;;5141647;28;20038;-64
2023/03/30 00:09:05;;;;;;;4.65;3.47;;;4.40;99.90;;;;;;5190009;28;20314;-65
2023/03/30 00:11:38;;;;;;;6.50;3.10;;;4.40;99.90;;;;;;5195001;28;20036;-65
2023/03/30 00:14:11;;;;;;;4.25;3.08;;;4.40;99.90;;;;;;5173717;28;20126;-66
2023/03/30 00:16:45;;;;;;;6.50;3.25;;;4.40;99.90;;;;;;5189111;28;20057;-65
2023/03/30 00:19:21;;;;;;;;;;;4.50;99.90;;;;;;5143961;28;20638;-67
2023/03/30 00:21:53;;;;;;;4.30;2.97;;;4.60;99.90;;;;;;5172271;28;19909;-66
2023/03/30 00:24:24;;;;;;;6.93;3.28;;;4.60;99.90;;;;;;5173847;28;20034;-61
2023/03/30 00:26:58;;;;;;;5.10;2.97;;;4.70;99.90;;;;;;5154837;28;20041;-64
2023/03/30 00:29:35;;;;;;;3.60;2.90;;;4.60;99.90;;;;;;5125941;28;20041;-66
2023/03/30 00:32:06;;;;;;;4.70;3.10;;;4.60;99.90;;;;;;5125691;28;20042;-65
2023/03/30 00:34:40;;;;;;;4.38;2.90;;;4.60;99.90;;;;;;5157876;28;20032;-67
2023/03/30 00:37:14;;;;;;;4.78;2.97;;;4.60;99.90;;;;;;5157013;28;20061;-66
2023/03/30 00:39:45;;;;;;;5.15;3.17;;;4.70;99.90;;;;;;5157168;28;20094;-61
2023/03/30 00:42:22;;;;;;;3.55;2.70;;;4.80;99.90;;;;;;5174546;28;20850;-68
2023/03/30 00:45:23;;;;;;;3.78;2.60;;;4.80;99.90;;;;;;5125199;28;20054;-67
2023/03/30 00:48:03;;;;;;;4.20;2.63;;;4.70;99.90;;;;;;5141199;28;20044;-68
2023/03/30 00:50:42;;;;;;;4.18;2.55;;;4.70;99.90;;;;;;5156978;28;20029;-63
2023/03/30 00:53:20;;;;;;;3.65;2.78;;;4.70;99.90;;;;;;5174482;28;20512;-66
2023/03/30 00:55:57;;;;;;;5.90;3.00;;;4.60;99.90;;;;;;5143712;28;20056;-65
2023/03/30 00:58:30;;;;;;;3.10;2.42;;;4.60;99.90;;;;;;5173612;28;20034;-65
2023/03/30 01:01:06;;;;;;;4.07;3.13;;;4.60;99.90;;;;;;5206197;22;20038;-68
2023/03/30 01:03:44;;;;;;;3.53;3.20;;;4.70;99.90;;;;;;5169465;28;20195;-66
2023/03/30 01:06:20;;;;;;;6.03;3.00;;;4.80;99.90;;;;;;5174255;28;20052;-64
2023/03/30 01:08:53;;;;;;;4.45;3.10;;;4.80;99.90;;;;;;5206853;28;20032;-69
2023/03/30 01:11:26;;;;;;;4.10;3.40;;;4.90;99.90;;;;;;5200028;28;20040;-64
2023/03/30 01:14:02;;;;;;;4.60;3.47;;;4.80;99.90;;;;;;5235082;28;20024;-67
2023/03/30 01:16:49;;;;;;;5.60;3.75;;;4.80;99.90;;;;;;5203130;28;20044;-67
2023/03/30 01:19:57;;;;;;;5.57;3.75;;;4.80;99.90;;;;;;5236123;28;20025;-68
2023/03/30 01:22:56;;;;;;;4.30;3.17;;;4.90;99.90;;;;;;5228540;28;20228;-64
2023/03/30 01:25:30;;;;;;;4.10;2.65;;;4.90;99.90;;;;;;5178657;28;20029;-66
2023/03/30 01:28:27;;;;;;;4.55;2.58;;;5.00;99.90;;;;;;5195852;28;20033;-62
2023/03/30 01:31:26;;;;;;;4.63;2.78;;;5.10;99.90;;;;;;5212662;28;20028;-61
2023/03/30 01:34:16;;;;;;;5.03;2.95;;;5.10;99.90;;;;;;5176060;28;20044;-62
2023/03/30 01:37:26;;;;;;;4.30;3.25;;;5.20;99.90;;;;;;5192321;28;20047;-66
2023/03/30 01:40:08;;;;;;;5.22;3.35;;;5.30;99.90;;;;;;5208922;28;20032;-63
2023/03/30 01:43:07;;;;;;;4.47;2.97;;;5.30;99.90;;;;;;5220845;28;20033;-67
2023/03/30 01:45:46;;;;;;;5.82;3.22;;;5.30;99.90;;;;;;5209727;28;20040;-63
2023/03/30 01:48:44;;;;;;;6.63;3.58;;;5.40;99.90;;;;;;5196952;28;20020;-63
2023/03/30 01:51:27;;;;;;;4.45;2.90;;;5.50;99.90;;;;;;5178941;28;20039;-63
2023/03/30 01:54:12;;;;;;;3.97;2.95;;;5.40;99.90;;;;;;5195323;28;20051;-63
2023/03/30 01:56:50;;;;;;;4.05;3.40;;;5.40;99.90;;;;;;5212200;28;20044;-65
2023/03/30 01:59:50;;;;;;;5.43;3.97;;;5.40;99.90;;;;;;5213350;28;20360;-61
2023/03/30 02:02:28;;;;;;;6.15;4.28;;;5.30;99.90;;;;;;5192829;28;20060;-68
2023/03/30 02:05:05;;;;;;;5.65;3.75;;;5.20;99.90;;;;;;5209617;28;20158;-64
2023/03/30 02:07:43;;;;;;;8.35;4.32;;;5.20;99.90;;;;;;5221582;28;20033;-65
2023/03/30 02:10:18;;;;;;;8.70;4.63;;;5.20;99.90;;;;;;5207481;28;20037;-66
2023/03/30 02:12:50;;;;;;;8.18;5.13;;;5.10;99.90;;;;;;5194309;28;20345;-65
2023/03/30 02:15:25;;;;;;;7.88;4.72;;;5.00;99.90;;;;;;5192776;28;20349;-67
2023/03/30 02:17:58;;;;;;;8.40;5.78;;;5.00;99.90;;;;;;5214204;28;20053;-66
2023/03/30 02:20:37;;;;;;;13.45;4.93;;;5.00;99.90;;;;;;5178483;28;20025;-66
2023/03/30 02:23:08;;;;;;;9.85;5.30;;;5.00;99.90;;;;;;5177561;28;20037;-63
2023/03/30 02:25:44;;;;;;;10.95;5.65;;;5.00;99.90;;;;;;5214690;28;20201;-67
2023/03/30 02:28:18;;;;;;;7.97;4.63;;;5.00;99.90;;;;;;5187150;28;20041;-64
2023/03/30 02:30:59;;;;;;;8.93;5.30;;;5.10;99.90;;;;;;5156765;28;20043;-65
2023/03/30 02:34:05;;;;;;;13.20;5.25;;;5.10;99.90;;;;;;5212605;28;20516;-66
2023/03/30 02:36:49;;;;;;;10.00;5.95;;;5.10;99.90;;;;;;5199682;28;20048;-65
2023/03/30 02:39:36;;;;;;;10.18;5.55;;;5.20;99.90;;;;;;5194405;28;20029;-67
2023/03/30 02:42:20;;;;;;;7.82;5.05;;;5.20;99.90;;;;;;5194743;28;20043;-70
2023/03/30 02:45:03;;;;;;;7.68;4.90;;;5.20;99.90;;;;;;5195176;28;20029;-65
2023/03/30 02:47:50;;;;;;;9.50;5.47;;;5.20;99.90;;;;;;5210987;28;20033;-68
2023/03/30 02:50:40;;;;;;;8.57;4.97;;;5.20;99.90;;;;;;5194219;28;20032;-61
2023/03/30 02:53:11;;;;;;;13.10;5.50;;;5.30;99.90;;;;;;5208613;28;20718;-66
2023/03/30 02:56:04;;;;;;;9.68;4.75;;;5.30;99.90;;;;;;5212136;28;20024;-66
2023/03/30 02:58:48;;;;;;;6.65;4.65;;;5.30;99.90;;;;;;5193969;28;20037;-68
2023/03/30 03:01:31;;;;;;;8.35;4.82;;;5.30;99.90;;;;;;5191485;28;20031;-68
2023/03/30 03:04:08;;;;;;;8.50;4.72;;;5.30;99.90;;;;;;5178222;28;20516;-66
2023/03/30 03:06:43;;;;;;;11.20;4.80;;;5.20;99.90;;;;;;5168454;28;20063;-65
2023/03/30 03:09:14;;;;;;;8.63;4.32;;;5.30;99.90;;;;;;5194696;28;20027;-68
2023/03/30 03:11:50;;;;;;;6.78;5.07;;;5.40;99.90;;;;;;5202629;28;20036;-68
2023/03/30 03:14:21;;;;;;;7.97;4.43;;;5.40;99.90;;;;;;5214934;28;20075;-67
2023/03/30 03:16:56;;;;;;;8.85;5.00;;;5.30;99.90;;;;;;5210183;28;20039;-69
2023/03/30 03:19:30;;;;;;;11.25;4.68;;;5.30;99.90;;;;;;5200033;28;20260;-65
2023/03/30 03:22:02;;;;;;;8.43;5.65;;;5.20;99.90;;;;;;5194686;28;20582;-66
2023/03/30 03:24:37;;;;;;;10.20;5.50;;;5.20;99.90;;;;;;5225848;28;20035;-64
2023/03/30 03:27:11;;;;;;;10.70;6.03;;;5.10;99.90;;;;;;5193469;28;20041;-66
2023/03/30 03:29:46;;;;;;;9.30;6.97;;;5.10;99.90;;;;;;5195323;28;20496;-64
2023/03/30 03:32:23;;;;;;;8.77;6.18;;;5.10;99.90;;;;;;5172765;28;20448;-68
2023/03/30 03:34:54;;;;;;;11.38;6.85;;;5.10;99.90;;;;;;5183786;28;20049;-66
2023/03/30 03:37:29;;;;;;;8.70;6.57;;;5.00;99.90;;;;;;5210529;28;20045;-65
2023/03/30 03:40:00;;;;;;;;;;;5.00;99.90;;;;;;5206445;28;20044;-68
2023/03/30 03:42:37;;;;;;;10.15;6.15;;;5.00;99.90;;;;;;5196969;28;19900;-71
2023/03/30 03:45:11;;;;;;;10.75;6.80;;;5.00;99.90;;;;;;5195197;28;20028;-69
2023/03/30 03:47:42;;;;;;;10.48;6.40;;;5.10;99.90;;;;;;5214573;28;20305;-64
2023/03/30 03:50:17;;;;;;;9.02;6.22;;;5.10;99.90;;;;;;5193732;28;20124;-67
2023/03/30 03:52:48;;;;;;;10.93;5.78;;;5.10;99.90;;;;;;5200473;28;20033;-68
2023/03/30 03:55:20;;;;;;;8.20;6.22;;;5.10;99.90;;;;;;5172965;28;20037;-69
2023/03/30 03:57:54;;;;;;;8.23;6.70;;;5.20;99.90;;;;;;5215350;28;20045;-69
2023/03/30 04:00:26;;;;;;;13.70;7.20;;;5.20;99.90;;;;;;5190873;28;20047;-71
2023/03/30 04:03:00;;;;;;;10.77;6.55;;;5.10;99.90;;;;;;5181754;28;20036;-66
2023/03/30 04:05:36;;;;;;;9.07;6.72;;;5.00;99.90;;;;;;5205028;28;20037;-66
2023/03/30 04:08:09;;;;;;;14.50;7.32;;;4.90;99.90;;;;;;5217385;28;20631;-67
2023/03/30 04:10:43;;;;;;;9.43;6.25;;;4.90;99.90;;;;;;5214816;28;20025;-66
2023/03/30 04:13:18;;;;;;;10.40;6.35;;;4.80;99.90;;;;;;5197629;28;20021;-63
2023/03/30 04:15:50;;;;;;;14.25;6.32;;;4.80;99.90;;;;;;5206253;28;20045;-65
2023/03/30 04:18:23;;;;;;;13.15;7.00;;;4.80;99.90;;;;;;5209538;28;20039;-66
2023/03/30 04:20:55;;;;;;;9.13;6.47;;;4.80;99.90;;;;;;5196318;28;20043;-68
2023/03/30 04:23:32;;;;;;;9.75;6.13;;;4.80;99.90;;;;;;5182742;28;20025;-69
2023/03/30 04:26:12;;;;;;;15.20;6.93;;;4.90;99.90;;;;;;5215524;28;20040;-70
2023/03/30 04:28:46;;;;;;;10.00;5.95;;;4.90;99.90;;;;;;5213651;28;20032;-66
2023/03/30 04:31:18;;;;;;;10.82;6.65;;;4.90;99.90;;;;;;5209247;28;20034;-68
2023/03/30 04:33:51;;;;;;;9.23;6.93;;;5.00;99.90;;;;;;5205466;28;20037;-65
2023/03/30 04:36:26;;;;;;;12.32;6.57;;;5.00;99.90;;;;;;5180161;28;20424;-66
2023/03/30 04:38:58;;;;;;;11.32;7.15;;;5.10;99.90;;;;;;5198272;28;20582;-65
2023/03/30 04:41:32;;;;;;;8.95;6.75;;;5.00;99.90;;;;;;5196040;28;20497;-70
2023/03/30 04:44:09;;;;;;;9.90;6.72;;;4.90;99.90;;;;;;5212120;28;20044;-67
2023/03/30 04:46:40;;;;;;;15.35;6.75;;;4.90;99.90;;;;;;5178153;28;20060;-67
2023/03/30 04:49:16;;;;;;;14.20;7.55;;;4.90;99.90;;;;;;5174462;28;20049;-66
2023/03/30 04:51:47;;;;;;;13.43;7.85;;;4.90;99.90;;;;;;5213522;28;20048;-67
2023/03/30 04:54:22;;;;;;;9.45;7.18;;;4.90;99.90;;;;;;5202674;28;20028;-66
2023/03/30 04:56:59;;;;;;;10.85;6.60;;;4.80;99.90;;;;;;5183488;28;20392;-68
2023/03/30 04:59:33;;;;;;;14.43;7.88;;;4.80;99.90;;;;;;5178693;28;20076;-64
2023/03/30 05:02:15;;;;;;;15.10;8.02;;;4.80;99.90;;;;;;5191124;28;20041;-66
2023/03/30 05:04:47;;;;;;;12.10;8.40;;;4.70;99.90;;;;;;5201246;28;20060;-69
2023/03/30 05:07:18;;;;;;;14.80;9.07;;;4.80;99.90;;;;;;5217365;28;20029;-67
2023/03/30 05:09:51;;;;;;;13.65;7.93;;;4.80;99.90;;;;;;5205515;28;20031;-70
2023/03/30 05:12:25;;;;;;;13.70;7.90;;;4.80;99.90;;;;;;5220502;28;20301;-66
2023/03/30 05:14:56;;;;;;;9.18;7.20;;;4.80;99.90;;;;;;5210788;28;20039;-71
2023/03/30 05:17:30;;;;;;;12.52;7.88;;;4.90;99.90;;;;;;5161792;28;20075;-64
2023/03/30 05:20:08;;;;;;;11.88;6.82;;;4.90;99.90;;;;;;5211336;28;20391;-64
2023/03/30 05:22:40;;;;;;;10.95;6.85;;;5.00;99.90;;;;;;5195123;28;20032;-68
2023/03/30 05:25:11;;;;;;;11.20;7.80;;;5.10;99.90;;;;;;5212789;28;20029;-68
2023/03/30 05:27:42;;;;;;;10.70;6.80;;;5.10;99.90;;;;;;5194472;28;20045;-69
2023/03/30 05:30:17;;;;;;;14.82;7.82;;;5.00;99.90;;;;;;5221306;28;20029;-66
2023/03/30 05:32:50;;;;;;;11.27;7.82;;;5.00;99.90;;;;;;5216170;28;20036;-67
2023/03/30 05:35:22;;;;;;;11.20;8.05;;;5.00;99.90;;;;;;5194635;28;20037;-69
2023/03/30 05:37:58;;;;;;;12.25;7.55;;;4.90;99.90;;;;;;5211984;28;20037;-66
2023/03/30 05:40:30;;;;;;;12.18;7.93;;;4.90;99.90;;;;;;5182770;28;20048;-69
2023/03/30 05:43:04;;;;;;;10.57;6.97;;;5.00;99.90;;;;;;5199805;28;20560;-69
2023/03/30 05:45:39;;;;;;;11.13;7.63;;;5.10;99.90;;;;;;5214935;28;20333;-67
2023/03/30 05:48:13;;;;;;;14.07;8.20;;;5.10;99.90;;;;;;5233761;28;20196;-67
2023/03/30 05:50:46;;;;;;;12.23;8.25;;;5.10;99.90;;;;;;5215296;28;20040;-66
2023/03/30 05:53:20;;;;;;;9.90;7.47;;;5.10;99.90;;;;;;5194633;28;20043;-69
2023/03/30 05:55:59;;;;;;;12.60;8.52;;;5.10;99.90;;;;;;5222173;28;20062;-68
2023/03/30 05:58:33;;;;;;;10.77;7.57;;;5.20;99.90;;;;;;5218082;28;20053;-65
2023/03/30 06:01:08;;;;;;;12.33;7.93;;;5.40;99.90;;;;;;5192594;28;20047;-64
2023/03/30 06:03:41;;;;;;;12.38;8.02;;;5.50;99.90;;;;;;5195742;28;20264;-66
2023/03/30 06:06:13;;;;;;;10.98;7.25;;;5.70;99.90;;;;;;5187036;28;20045;-61
2023/03/30 06:08:45;;;;;;;10.85;7.38;;;6.10;99.90;;;;;;5197102;28;20029;-65
2023/03/30 06:11:19;;;;;;;17.92;7.82;;;6.40;99.90;;;;;;5176455;28;20036;-60
2023/03/30 06:13:50;;;;;;;11.70;7.15;;;6.40;99.90;;;;;;5195032;28;20094;-66
2023/03/30 06:16:24;;;;;;;9.50;7.32;;;6.60;99.90;;;;;;5194113;28;20036;-70
2023/03/30 06:18:57;;;;;;;12.13;6.90;;;6.60;99.90;;;;;;5174828;28;20040;-65
2023/03/30 06:21:28;;;;;;;13.93;6.95;;;6.70;99.90;;;;;;5185699;28;20040;-70
2023/03/30 06:24:00;;;;;;;9.95;6.55;;;6.90;99.90;;;;;;5211814;28;20033;-67
2023/03/30 06:26:31;;;;;;;11.48;6.72;;;7.00;99.90;;;;;;5211224;28;20226;-64
2023/03/30 06:29:05;;;;;;;9.23;6.20;;;7.20;99.90;;;;;;5195130;28;20027;-64
2023/03/30 06:31:47;;;;;;;9.82;6.95;;;7.40;99.90;;;;;;5192687;28;20025;-65
2023/03/30 06:34:21;;;;;;;11.65;7.22;;;7.60;99.90;;;;;;5212309;28;20090;-68
2023/03/30 06:36:55;;;;;;;;;;;7.80;99.90;;;;;;5210238;28;20036;-62
2023/03/30 06:39:27;;;;;;;9.55;6.97;;;7.90;99.90;;;;;;5209870;28;20434;-63
2023/03/30 06:42:02;;;;;;;9.02;5.93;;;8.00;99.90;;;;;;5212764;28;20043;-68
2023/03/30 06:44:38;;;;;;;16.95;6.38;;;8.20;99.90;;;;;;5200130;28;20050;-66
2023/03/30 06:47:10;;;;;;;8.07;5.75;;;8.30;99.90;;;;;;5193513;28;20036;-72
2023/03/30 06:49:43;;;;;;;13.70;6.28;;;8.30;99.90;;;;;;5176611;28;20372;-64
2023/03/30 06:52:21;;;;;;;8.90;5.35;;;8.40;99.90;;;;;;5193914;28;20040;-72
2023/03/30 06:54:54;;;;;;;9.05;5.38;;;8.50;99.90;;;;;;5212499;28;20460;-62
2023/03/30 06:57:25;;;;;;;9.63;5.47;;;8.60;99.90;;;;;;5193500;28;20055;-69
2023/03/30 06:59:57;;;;;;;8.57;5.85;;;8.70;99.90;;;;;;5194360;28;20318;-61
2023/03/30 07:02:32;;;;;;;10.57;5.50;;;8.80;99.90;;;;;;5208979;28;20036;-66
2023/03/30 07:05:05;;;;;;;8.25;5.25;;;8.70;99.90;;;;;;5184049;28;20250;-72
2023/03/30 07:07:42;;;;;;;8.77;5.40;;;8.70;99.90;;;;;;5175314;28;20052;-67
2023/03/30 07:10:14;;;;;;;8.95;5.57;;;8.80;99.90;;;;;;5178028;28;20029;-64
2023/03/30 07:12:56;;;;;;;7.15;5.28;;;8.80;99.90;;;;;;5214479;28;20029;-65
2023/03/30 07:15:32;;;;;;;8.85;5.43;;;8.90;99.90;;;;;;5213549;28;20044;-64
2023/03/30 07:18:11;;;;;;;8.98;5.80;;;8.80;99.90;;;;;;5213349;28;20052;-69
2023/03/30 07:20:45;;;;;;;11.98;6.13;;;8.80;99.90;;;;;;5196784;28;20043;-64
2023/03/30 07:23:18;;;;;;;7.75;5.40;;;9.00;99.90;;;;;;5214785;28;20559;-68
2023/03/30 07:25:55;;;;;;;10.68;5.45;;;9.00;99.90;;;;;;5160528;28;20037;-69
2023/03/30 07:28:28;;;;;;;9.02;5.38;;;9.00;99.90;;;;;;5176217;28;20041;-66
2023/03/30 07:31:04;;;;;;;6.60;4.75;;;9.00;99.90;;;;;;5192451;28;20023;-65
2023/03/30 07:33:36;;;;;;;7.25;5.13;;;9.10;99.90;;;;;;5194541;28;20042;-69
2023/03/30 07:36:07;;;;;;;6.65;4.68;;;9.00;99.90;;;;;;5179529;28;20033;-66
2023/03/30 07:38:41;;;;;;;8.93;5.00;;;8.80;99.90;;;;;;5180916;28;20045;-65
2023/03/30 07:41:18;;;;;;;10.02;5.10;;;8.80;99.90;;;;;;5180242;28;20032;-68
2023/03/30 07:43:51;;;;;;;7.47;5.25;;;9.00;99.90;;;;;;5214013;28;20198;-65
2023/03/30 07:46:25;;;;;;;7.78;5.30;;;9.00;99.90;;;;;;5211354;28;20050;-67
2023/03/30 07:48:57;;;;;;;10.00;5.70;;;9.20;99.90;;;;;;5237082;28;20062;-63
2023/03/30 07:51:28;;;;;;;7.53;5.32;;;9.40;99.90;;;;;;5237144;28;20039;-66
2023/03/30 07:54:00;;;;;;;7.75;4.75;;;9.50;99.90;;;;;;5199791;28;20033;-68
2023/03/30 07:56:37;;;;;;;7.70;4.85;;;9.80;99.90;;;;;;5196643;28;20040;-69
2023/03/30 07:59:12;;;;;;;7.75;5.13;;;10.00;99.90;;;;;;5214790;28;20052;-66
2023/03/30 08:01:44;;;;;;;6.78;5.15;;;10.20;99.90;;;;;;5204519;28;20657;-68
2023/03/30 08:04:16;;;;;;;7.30;5.03;;;10.40;99.90;;;;;;5167382;28;20043;-67
2023/03/30 08:06:48;;;;;;;5.80;4.70;;;10.60;99.90;;;;;;5198177;28;20045;-67
2023/03/30 08:09:23;;;;;;;9.45;5.38;;;11.00;99.90;;;;;;5182763;28;20043;-65
2023/03/30 08:11:57;;;;;;;9.20;5.45;;;11.40;99.90;;;;;;5177032;28;20039;-65
2023/03/30 08:14:30;;;;;;;;;;;11.60;99.90;;;;;;5145721;28;20059;-66
2023/03/30 08:17:01;;;;;;;7.85;4.88;;;12.10;99.90;;;;;;5189375;28;19901;-67
2023/03/30 08:19:32;;;;;;;5.65;4.07;;;12.70;99.90;;;;;;5197131;28;20051;-66
2023/03/30 08:22:04;;;;;;;4.90;4.38;;;12.20;99.90;;;;;;5214854;28;20055;-67
2023/03/30 08:24:37;;;;;;;7.38;4.65;;;12.50;99.90;;;;;;5181072;28;20032;-66
2023/03/30 08:27:11;;;;;;;7.00;4.95;;;12.50;16.30;;;;;;5180159;28;20037;-67
2023/03/30 08:29:43;;;;;;;6.50;4.30;;;12.40;1.00;;;;;;5195357;28;20037;-67
2023/03/30 08:32:17;;;;;;;5.80;3.80;;;12.60;1.00;;;;;;5211931;28;20029;-67
2023/03/30 08:34:53;;;;;;;5.10;4.25;;;12.80;1.00;;;;;;5181091;28;20039;-65
2023/03/30 08:37:32;;;;;;;6.28;4.47;;;12.60;99.90;;;;;;5195491;28;20033;-68
2023/03/30 08:40:07;;;;;;;8.13;4.20;;;12.30;99.90;;;;;;5195117;28;20072;-66
2023/03/30 08:42:47;;;;;;;7.40;4.47;;;12.10;1.00;;;;;;5197560;28;20029;-66
2023/03/30 08:45:18;;;;;;;9.88;5.22;;;12.00;1.00;;;;;;5212354;28;20028;-66
2023/03/30 08:47:51;;;;;;;6.72;4.82;;;11.70;1.00;;;;;;5195749;28;20033;-68
2023/03/30 08:50:35;;;;;;;7.93;4.60;;;11.60;1.00;;;;;;5194477;28;20044;-67
2023/03/30 08:53:07;;;;;;;7.50;5.03;;;11.30;1.00;;;;;;5179906;28;20386;-68
2023/03/30 08:55:46;;;;;;;10.18;5.05;;;11.30;1.00;;;;;;5195241;28;20029;-65
2023/03/30 08:58:28;;;;;;;9.95;5.47;;;11.70;1.00;;;;;;5195197;28;20033;-67
2023/03/30 09:01:26;;;;;;;9.00;5.18;;;12.10;1.00;;;;;;5192282;28;20032;-64
2023/03/30 09:04:15;;;;;;;7.95;5.05;;;12.60;99.90;;;;;;5209436;28;20341;-62
2023/03/30 09:07:11;;;;;;;6.80;4.60;;;12.50;99.90;;;;;;5185819;28;20064;-63
2023/03/30 09:09:50;;;;;;;6.43;4.70;;;12.50;99.90;;;;;;5196638;28;20063;-64
2023/03/30 09:12:46;;;;;;;6.10;4.60;;;12.70;99.90;;;;;;5213251;28;20037;-65
2023/03/30 09:15:28;;;;;;;7.53;4.45;;;12.80;99.90;;;;;;5204234;28;20034;-66
2023/03/30 09:18:17;;;;;;;5.20;3.95;;;12.70;99.90;;;;;;5233913;28;20043;-64
2023/03/30 09:20:55;;;;;;;8.05;4.88;;;13.00;99.90;;;;;;5212883;28;20037;-68
2023/03/30 09:23:30;;;;;;;8.55;5.18;;;13.20;99.90;;;;;;5215032;28;20036;-68
2023/03/30 09:26:20;;;;;;;8.05;5.28;;;13.20;99.90;;;;;;5212395;28;20037;-67
2023/03/30 09:29:05;;;;;;;5.80;4.82;;;12.90;99.90;;;;;;5175443;28;20037;-69
2023/03/30 09:32:02;;;;;;;8.93;4.93;;;13.20;99.90;;;;;;5174424;28;20505;-65
2023/03/30 09:35:06;;;;;;;7.43;4.47;;;13.20;99.90;;;;;;5192551;28;20036;-65
2023/03/30 09:37:37;;;;;;;5.55;4.30;;;13.50;99.90;;;;;;5183101;28;20036;-67
2023/03/30 09:40:33;;;;;;;8.07;4.43;;;13.60;99.90;;;;;;5212836;28;20245;-69
2023/03/30 09:43:19;;;;;;;8.77;4.65;;;13.50;99.90;;;;;;5195181;28;20501;-65
2023/03/30 09:45:51;;;;;;;5.93;4.88;;;13.80;99.90;;;;;;5212244;28;20024;-67
2023/03/30 09:48:24;;;;;;;7.90;4.47;;;13.90;99.90;;;;;;5194732;28;20092;-65
2023/03/30 09:50:57;;;;;;;7.95;4.75;;;13.70;99.90;;;;;;5194708;28;20037;-64
2023/03/30 09:53:31;;;;;;;8.32;4.55;;;13.80;99.90;;;;;;5214897;28;20038;-66
2023/03/30 09:56:21;;;;;;;8.40;4.65;;;14.00;99.90;;;;;;5215531;28;20037;-70
2023/03/30 09:58:53;;;;;;;7.90;5.03;;;14.20;99.90;;;;;;5176889;28;20616;-62
2023/03/30 10:01:36;;;;;;;7.75;4.65;;;13.80;99.90;;;;;;5174818;28;20174;-67
2023/03/30 10:04:17;;;;;;;7.68;4.93;;;13.40;99.90;;;;;;5213539;28;20364;-66
2023/03/30 10:06:49;;;;;;;11.10;5.05;;;13.40;99.90;;;;;;5184210;28;20049;-66
2023/03/30 10:09:27;;;;;;;6.85;4.78;;;13.70;99.90;;;;;;5182190;28;20025;-65
2023/03/30 10:12:01;;;;;;;6.28;4.88;;;14.10;99.90;;;;;;5223357;28;20028;-68
2023/03/30 10:14:40;;;;;;;6.68;4.90;;;14.40;99.90;;;;;;5216243;28;20066;-65
2023/03/30 10:17:23;;;;;;;5.70;4.38;;;14.20;99.90;;;;;;5197276;28;20058;-67
2023/03/30 10:20:16;;;;;;;5.18;4.47;;;14.00;99.90;;;;;;5231603;28;20588;-68
2023/03/30 10:23:04;;;;;;;7.30;4.10;;;13.90;99.90;;;;;;5215154;28;20035;-67
2023/03/30 10:25:39;;;;;;;10.25;5.43;;;13.90;99.90;;;;;;5214022;28;20040;-70
2023/03/30 10:28:20;;;;;;;9.45;5.22;;;13.70;99.90;;;;;;5194101;28;20104;-64
2023/03/30 10:31:00;;;;;;;10.13;5.15;;;13.60;99.90;;;;;;5176549;28;20022;-70
2023/03/30 10:33:42;;;;;;;7.65;5.10;;;13.70;99.90;;;;;;5174251;28;20029;-67
2023/03/30 10:36:18;;;;;;;7.68;4.47;;;13.50;99.90;;;;;;5170007;28;20439;-68
2023/03/30 10:38:50;;;;;;;8.15;5.10;;;13.60;99.90;;;;;;5211806;28;20031;-69
2023/03/30 10:41:23;;;;;;;6.97;4.60;;;13.70;99.90;;;;;;5195885;28;20047;-68
2023/03/30 10:44:00;;;;;;;;;;;14.10;99.90;;;;;;5195443;28;20029;-65
2023/03/30 10:46:36;;;;;;;7.40;5.18;;;13.90;99.90;;;;;;5177235;28;19939;-69
2023/03/30 10:49:19;;;;;;;8.30;5.88;;;13.80;99.90;;;;;;5212528;28;20033;-69
2023/03/30 10:52:16;;;;;;;12.07;5.13;;;13.10;99.90;;;;;;5210279;28;20510;-69
2023/03/30 10:54:56;;;;;;;7.80;5.30;;;13.00;99.90;;;;;;5208190;28;20594;-66
2023/03/30 10:57:41;;;;;;;7.63;5.40;;;13.30;99.90;;;;;;5199655;28;20033;-67
2023/03/30 11:00:43;;;;;;;8.90;5.47;;;13.60;99.90;;;;;;5208892;28;20664;-63
2023/03/30 11:03:28;;;;;;;9.20;4.95;;;13.80;99.90;;;;;;5176636;28;20041;-65
2023/03/30 11:06:07;;;;;;;8.85;5.70;;;13.60;99.90;;;;;;5183586;28;20063;-68
2023/03/30 11:08:48;;;;;;;8.93;5.95;;;13.70;99.90;;;;;;5182819;28;20043;-67
2023/03/30 11:11:48;;;;;;;8.05;5.10;;;13.60;99.90;;;;;;5205872;28;20031;-67
2023/03/30 11:14:33;;;;;;;9.43;5.95;;;12.60;99.90;;;;;;5161542;28;20033;-67
2023/03/30 11:17:11;;;;;;;7.10;5.78;;;12.50;99.90;;;;;;5179048;28;20033;-69
2023/03/30 11:19:50;;;;;;;9.23;5.50;;;12.70;99.90;;;;;;5216818;28;20130;-66
2023/03/30 11:22:54;;;;;;;8.73;5.82;;;12.80;99.90;;;;;;5201836;28;20317;-67
2023/03/30 11:26:07;;;;;;;9.00;5.75;;;12.60;99.90;;;;;;5237209;28;20050;-65
2023/03/30 11:29:07;;;;;;;7.85;5.70;;;12.50;99.90;;;;;;5148006;28;20067;-65
2023/03/30 11:31:52;;;;;;;8.30;6.22;;;12.20;99.90;;;;;;5132824;28;20030;-66
2023/03/30 11:34:29;;;;;;;9.23;5.78;;;12.30;99.90;;;;;;5115912;28;20027;-68
2023/03/30 11:37:20;;;;;;;8.65;5.60;;;12.30;99.90;;;;;;5131826;28;20496;-65
2023/03/30 11:40:01;;;;;;;11.50;6.10;;;12.40;99.90;;;;;;5148303;28;20048;-65
2023/03/30 11:42:36;;;;;;;10.43;5.65;;;12.40;99.90;;;;;;5151630;28;20057;-64
2023/03/30 11:45:36;;;;;;;7.75;5.65;;;12.60;99.90;;;;;;5151258;28;20022;-66
2023/03/30 11:48:52;;;;;;;11.18;6.43;;;12.60;99.90;;;;;;5151168;28;20420;-65
2023/03/30 11:51:48;;;;;;;9.18;5.68;;;12.70;99.90;;;;;;5136792;28;20034;-67
2023/03/30 11:54:58;;;;;;;12.80;6.18;;;12.50;99.90;;;;;;5151693;28;20022;-65
2023/03/30 11:57:29;;;;;;;7.60;5.80;;;12.50;99.90;;;;;;5143373;28;20052;-65
2023/03/30 12:00:11;;;;;;;9.05;6.40;;;12.60;99.90;;;;;;5144054;28;20069;-64
2023/03/30 12:03:11;;;;;;;8.55;5.88;;;12.60;99.90;;;;;;5167488;28;20037;-67
2023/03/30 12:05:55;;;;;;;11.48;6.40;;;12.60;99.90;;;;;;5193828;28;20369;-66
2023/03/30 12:08:44;;;;;;;9.98;6.50;;;13.10;99.90;;;;;;5176063;28;20052;-67
2023/03/30 12:11:29;;;;;;;8.70;6.45;;;13.50;99.90;;;;;;5193213;28;20025;-66
2023/03/30 12:14:01;;;;;;;8.13;6.32;;;13.90;99.90;;;;;;5175607;28;20044;-62
2023/03/30 12:16:48;;;;;;;10.27;6.07;;;14.40;99.90;;;;;;5173801;28;20025;-65
2023/03/30 12:19:40;;;;;;;9.10;6.68;;;14.30;99.90;;;;;;5175309;28;20033;-66
2023/03/30 12:22:25;;;;;;;9.82;5.93;;;14.00;99.90;;;;;;5175103;28;20041;-68
2023/03/30 12:25:05;;;;;;;7.95;6.25;;;14.00;99.90;;;;;;5175687;28;20047;-68
2023/03/30 12:27:58;;;;;;;7.78;5.80;;;14.10;99.90;;;;;;5172219;28;20025;-61
2023/03/30 12:30:40;;;;;;;7.43;6.03;;;13.80;99.90;;;;;;5173428;28;20580;-67
2023/03/30 12:33:19;;;;;;;7.28;6.05;;;14.00;99.90;;;;;;5189814;28;20025;-68
2023/03/30 12:35:57;;;;;;;13.57;6.13;;;14.30;99.90;;;;;;5156724;28;20037;-64
2023/03/30 12:38:42;;;;;;;11.48;6.32;;;14.10;99.90;;;;;;5155457;28;20033;-63
2023/03/30 12:41:23;;;;;;;10.18;6.70;;;13.70;99.90;;;;;;5191241;28;20029;-63
2023/03/30 12:44:24;;;;;;;7.90;6.82;;;13.60;99.90;;;;;;5191677;28;20314;-64
2023/03/30 12:47:33;;;;;;;9.07;6.85;;;13.50;99.90;;;;;;5136988;28;20038;-63
2023/03/30 12:50:22;;;;;;;10.70;6.85;;;13.10;99.90;;;;;;5157656;28;20041;-63
2023/03/30 12:53:22;;;;;;;10.68;6.47;;;12.90;99.90;;;;;;5191855;28;20021;-66
2023/03/30 12:56:36;;;;;;;10.38;6.82;;;12.60;99.90;;;;;;5191779;28;20033;-62
2023/03/30 12:59:29;;;;;;;10.07;7.22;;;12.20;99.90;;;;;;5185858;28;20040;-66
2023/03/30 13:02:25;;;;;;;13.93;7.47;;;12.00;99.90;;;;;;5153648;28;20068;-67
2023/03/30 13:04:59;;;;;;;14.38;7.22;;;11.80;99.90;;;;;;5181212;28;20081;-69
2023/03/30 13:07:35;;;;;;;10.67;7.53;;;11.50;99.90;;;;;;5173816;28;20033;-67
2023/03/30 13:10:28;;;;;;;9.55;8.25;;;11.30;99.90;;;;;;5190916;28;20052;-64
2023/03/30 13:13:04;;;;;;;11.15;7.13;;;11.20;99.90;;;;;;5173115;28;20032;-64
2023/03/30 13:16:06;;;;;;;14.45;7.82;;;11.30;99.90;;;;;;5171676;28;20033;-65
2023/03/30 13:18:52;;;;;;;13.13;7.05;;;11.20;99.90;;;;;;5192415;28;20069;-67
2023/03/30 13:21:25;;;;;;;8.07;6.55;;;11.20;99.90;;;;;;5156669;28;20099;-67
2023/03/30 13:24:27;;;;;;;11.18;6.68;;;11.20;99.90;;;;;;5174131;28;20534;-62
2023/03/30 13:27:15;;;;;;;10.35;7.93;;;11.40;99.90;;;;;;5173139;28;20032;-66
2023/03/30 13:29:55;;;;;;;10.90;7.97;;;11.60;99.90;;;;;;5175081;28;20369;-64
2023/03/30 13:32:33;;;;;;;12.75;8.15;;;12.00;99.90;;;;;;5171297;28;20461;-63
2023/03/30 13:35:25;;;;;;;10.25;7.13;;;12.10;99.90;;;;;;5191207;28;20033;-65
2023/03/30 13:38:00;;;;;;;10.85;7.43;;;12.20;99.90;;;;;;5172732;28;20039;-68
2023/03/30 13:40:59;;;;;;;9.23;7.32;;;12.20;99.90;;;;;;5188391;28;20033;-68
2023/03/30 13:43:48;;;;;;;11.43;6.95;;;12.20;99.90;;;;;;5190812;28;20029;-66
2023/03/30 13:46:41;;;;;;;10.80;7.28;;;12.10;99.90;;;;;;5174183;28;20025;-69
2023/03/30 13:49:27;;;;;;;11.35;7.05;;;12.10;99.90;;;;;;5173897;28;20188;-66
2023/03/30 13:52:05;;;;;;;9.82;7.20;;;12.10;99.90;;;;;;5173924;28;20025;-63
2023/03/30 13:54:42;;;;;;;11.18;7.57;;;12.20;99.90;;;;;;5176427;28;20025;-64